sensor_id;sensor_type;location;lat;lon;timestamp;pressure;altitude;pressure_sealevel;temperature;humidity
3796;BME280;1913;50.660;7.834;2023-02-26T00:01:20;96909.00;;;-4.30;100.00
3796;BME280;1913;50.660;7.834;2023-02-26T00:03:53;96913.88;;;-4.27;100.00
3796;BME280;1913;50.660;7.834;2023-02-26T00:06:19;96912.38;;;-4.29;100.00
3796;BME280;1913;50.660;7.834;2023-02-26T00:08:45;96906.75;;;-4.23;100.00
3796;BME280;1913;50.660;7.834;2023-02-26T00:11:11;96906.31;;;-4.17;100.00
3796;BME280;1913;50.660;7.834;2023-02-26T00:13:38;96907.47;;;-4.10;100.00
3796;BME280;1913;50.660;7.834;2023-02-26T00:16:12;96895.56;;;-4.00;100.00
3796;BME280;1913;50.660;7.834;2023-02-26T00:18:42;96899.41;;;-3.94;100.00
3796;BME280;1913;50.660;7.834;2023-02-26T00:21:15;96904.03;;;-3.88;100.00
3796;BME280;1913;50.660;7.834;2023-02-26T00:23:40;96920.72;;;-3.82;100.00
3796;BME280;1913;50.660;7.834;2023-02-26T00:26:06;96927.63;;;-3.83;100.00
3796;BME280;1913;50.660;7.834;2023-02-26T00:28:31;96923.88;;;-3.79;100.00
3796;BME280;1913;50.660;7.834;2023-02-26T00:30:57;96923.06;;;-3.79;100.00
3796;BME280;1913;50.660;7.834;2023-02-26T00:33:23;96923.66;;;-3.76;100.00
3796;BME280;1913;50.660;7.834;2023-02-26T00:35:55;96926.78;;;-3.72;100.00
3796;BME280;1913;50.660;7.834;2023-02-26T00:38:26;96923.97;;;-3.69;100.00
3796;BME280;1913;50.660;7.834;2023-02-26T00:40:54;96934.25;;;-3.69;100.00
3796;BME280;1913;50.660;7.834;2023-02-26T00:43:23;96936.69;;;-3.68;100.00
3796;BME280;1913;50.660;7.834;2023-02-26T00:51:40;96958.56;;;-3.30;100.00
3796;BME280;1913;50.660;7.834;2023-02-26T00:56:41;96955.41;;;-3.01;100.00
3796;BME280;1913;50.660;7.834;2023-02-26T00:59:06;96959.31;;;-2.86;100.00
3796;BME280;1913;50.660;7.834;2023-02-26T01:01:32;96959.88;;;-2.82;100.00
3796;BME280;1913;50.660;7.834;2023-02-26T01:03:57;96962.72;;;-2.65;100.00
3796;BME280;1913;50.660;7.834;2023-02-26T01:06:26;96962.59;;;-2.63;100.00
3796;BME280;1913;50.660;7.834;2023-02-26T01:11:24;96968.59;;;-2.53;100.00
3796;BME280;1913;50.660;7.834;2023-02-26T01:13:50;96961.66;;;-2.62;100.00
3796;BME280;1913;50.660;7.834;2023-02-26T01:16:21;96961.97;;;-2.55;100.00
3796;BME280;1913;50.660;7.834;2023-02-26T01:19:02;96964.84;;;-2.70;100.00
3796;BME280;1913;50.660;7.834;2023-02-26T01:21:36;96961.09;;;-2.66;100.00
3796;BME280;1913;50.660;7.834;2023-02-26T01:24:06;96965.66;;;-2.69;100.00
3796;BME280;1913;50.660;7.834;2023-02-26T01:26:34;96973.44;;;-2.80;100.00
3796;BME280;1913;50.660;7.834;2023-02-26T01:29:00;96964.94;;;-2.92;100.00
3796;BME280;1913;50.660;7.834;2023-02-26T01:31:31;96968.59;;;-2.95;100.00
3796;BME280;1913;50.660;7.834;2023-02-26T01:34:05;96972.94;;;-3.06;100.00
3796;BME280;1913;50.660;7.834;2023-02-26T01:36:38;96976.72;;;-3.10;100.00
3796;BME280;1913;50.660;7.834;2023-02-26T01:41:48;96973.16;;;-3.42;100.00
3796;BME280;1913;50.660;7.834;2023-02-26T01:44:39;96971.19;;;-3.38;100.00
3796;BME280;1913;50.660;7.834;2023-02-26T01:49:45;96970.03;;;-3.45;100.00
3796;BME280;1913;50.660;7.834;2023-02-26T01:54:58;96976.13;;;-3.57;100.00
3796;BME280;1913;50.660;7.834;2023-02-26T01:57:24;96982.06;;;-3.46;100.00
3796;BME280;1913;50.660;7.834;2023-02-26T01:59:51;96980.19;;;-3.44;100.00
3796;BME280;1913;50.660;7.834;2023-02-26T02:02:21;96975.06;;;-3.44;100.00
3796;BME280;1913;50.660;7.834;2023-02-26T02:04:48;96975.75;;;-3.42;100.00
3796;BME280;1913;50.660;7.834;2023-02-26T02:07:14;96984.63;;;-3.46;100.00
3796;BME280;1913;50.660;7.834;2023-02-26T02:09:40;96985.44;;;-3.45;100.00
3796;BME280;1913;50.660;7.834;2023-02-26T02:12:17;96987.47;;;-3.60;100.00
3796;BME280;1913;50.660;7.834;2023-02-26T02:14:52;96987.22;;;-3.57;100.00
3796;BME280;1913;50.660;7.834;2023-02-26T02:33:30;96990.03;;;-3.60;100.00
3796;BME280;1913;50.660;7.834;2023-02-26T02:36:04;97000.19;;;-3.58;100.00
3796;BME280;1913;50.660;7.834;2023-02-26T02:38:38;97009.41;;;-3.56;100.00
3796;BME280;1913;50.660;7.834;2023-02-26T02:41:14;97005.91;;;-3.55;100.00
3796;BME280;1913;50.660;7.834;2023-02-26T02:43:42;97010.94;;;-3.65;100.00
3796;BME280;1913;50.660;7.834;2023-02-26T02:46:18;97011.06;;;-3.66;100.00
3796;BME280;1913;50.660;7.834;2023-02-26T02:48:57;97010.81;;;-3.63;100.00
3796;BME280;1913;50.660;7.834;2023-02-26T02:51:38;97008.03;;;-3.71;100.00
3796;BME280;1913;50.660;7.834;2023-02-26T02:57:08;97015.03;;;-3.73;100.00
3796;BME280;1913;50.660;7.834;2023-02-26T02:59:40;97011.75;;;-3.75;100.00
3796;BME280;1913;50.660;7.834;2023-02-26T03:04:40;97013.38;;;-3.74;100.00
3796;BME280;1913;50.660;7.834;2023-02-26T03:07:05;97025.78;;;-3.79;100.00
3796;BME280;1913;50.660;7.834;2023-02-26T03:09:32;97024.47;;;-3.74;100.00
3796;BME280;1913;50.660;7.834;2023-02-26T03:11:57;97021.22;;;-3.76;100.00
3796;BME280;1913;50.660;7.834;2023-02-26T03:14:23;97027.75;;;-3.72;100.00
3796;BME280;1913;50.660;7.834;2023-02-26T03:19:35;97033.84;;;-3.84;100.00
3796;BME280;1913;50.660;7.834;2023-02-26T03:24:52;97041.75;;;-3.98;100.00
3796;BME280;1913;50.660;7.834;2023-02-26T03:35:26;97035.53;;;-4.18;100.00
3796;BME280;1913;50.660;7.834;2023-02-26T03:37:57;97040.75;;;-4.31;100.00
3796;BME280;1913;50.660;7.834;2023-02-26T03:43:06;97048.09;;;-4.38;100.00
3796;BME280;1913;50.660;7.834;2023-02-26T03:45:34;97050.31;;;-4.44;100.00
3796;BME280;1913;50.660;7.834;2023-02-26T03:48:05;97054.38;;;-4.42;100.00
3796;BME280;1913;50.660;7.834;2023-02-26T03:50:39;97058.78;;;-4.55;100.00
3796;BME280;1913;50.660;7.834;2023-02-26T03:53:11;97059.91;;;-4.59;100.00
3796;BME280;1913;50.660;7.834;2023-02-26T03:58:14;97069.44;;;-4.72;100.00
3796;BME280;1913;50.660;7.834;2023-02-26T04:00:41;97078.28;;;-4.76;100.00
3796;BME280;1913;50.660;7.834;2023-02-26T04:03:13;97075.16;;;-4.69;100.00
3796;BME280;1913;50.660;7.834;2023-02-26T04:05:47;97077.44;;;-4.77;100.00
3796;BME280;1913;50.660;7.834;2023-02-26T04:08:13;97086.31;;;-4.70;100.00
3796;BME280;1913;50.660;7.834;2023-02-26T04:10:47;97094.88;;;-4.69;100.00
3796;BME280;1913;50.660;7.834;2023-02-26T04:13:17;97093.16;;;-4.58;100.00
3796;BME280;1913;50.660;7.834;2023-02-26T04:15:42;97090.16;;;-4.51;100.00
3796;BME280;1913;50.660;7.834;2023-02-26T04:18:08;97094.94;;;-4.47;100.00
3796;BME280;1913;50.660;7.834;2023-02-26T04:20:33;97089.09;;;-4.49;100.00
3796;BME280;1913;50.660;7.834;2023-02-26T04:22:58;97099.91;;;-4.57;100.00
3796;BME280;1913;50.660;7.834;2023-02-26T04:25:24;97104.94;;;-4.55;100.00
3796;BME280;1913;50.660;7.834;2023-02-26T04:27:49;97100.69;;;-4.67;100.00
3796;BME280;1913;50.660;7.834;2023-02-26T04:30:15;97113.13;;;-4.74;100.00
3796;BME280;1913;50.660;7.834;2023-02-26T04:32:40;97113.94;;;-4.73;100.00
3796;BME280;1913;50.660;7.834;2023-02-26T04:35:06;97118.78;;;-4.82;100.00
3796;BME280;1913;50.660;7.834;2023-02-26T04:37:32;97118.59;;;-4.78;100.00
3796;BME280;1913;50.660;7.834;2023-02-26T04:39:57;97119.00;;;-4.85;100.00
3796;BME280;1913;50.660;7.834;2023-02-26T04:42:22;97120.16;;;-4.89;100.00
3796;BME280;1913;50.660;7.834;2023-02-26T04:44:48;97114.25;;;-5.02;100.00
3796;BME280;1913;50.660;7.834;2023-02-26T04:47:13;97119.81;;;-5.08;100.00
3796;BME280;1913;50.660;7.834;2023-02-26T04:49:39;97124.00;;;-5.07;100.00
3796;BME280;1913;50.660;7.834;2023-02-26T04:52:04;97128.53;;;-5.11;100.00
3796;BME280;1913;50.660;7.834;2023-02-26T04:54:29;97127.53;;;-5.21;100.00
3796;BME280;1913;50.660;7.834;2023-02-26T04:56:55;97134.13;;;-5.06;100.00
3796;BME280;1913;50.660;7.834;2023-02-26T04:59:21;97136.19;;;-4.98;100.00
3796;BME280;1913;50.660;7.834;2023-02-26T05:01:46;97137.81;;;-4.97;100.00
3796;BME280;1913;50.660;7.834;2023-02-26T05:04:11;97139.56;;;-4.97;100.00
3796;BME280;1913;50.660;7.834;2023-02-26T05:06:37;97135.97;;;-4.95;100.00
3796;BME280;1913;50.660;7.834;2023-02-26T05:09:04;97134.00;;;-4.91;100.00
3796;BME280;1913;50.660;7.834;2023-02-26T05:11:29;97140.06;;;-4.92;100.00
3796;BME280;1913;50.660;7.834;2023-02-26T05:13:55;97137.16;;;-4.88;100.00
3796;BME280;1913;50.660;7.834;2023-02-26T05:16:20;97134.44;;;-4.97;100.00
3796;BME280;1913;50.660;7.834;2023-02-26T05:18:46;97135.88;;;-4.93;100.00
3796;BME280;1913;50.660;7.834;2023-02-26T05:21:11;97141.31;;;-4.98;100.00
3796;BME280;1913;50.660;7.834;2023-02-26T05:23:37;97143.75;;;-4.96;100.00
3796;BME280;1913;50.660;7.834;2023-02-26T05:26:02;97140.00;;;-5.03;100.00
3796;BME280;1913;50.660;7.834;2023-02-26T05:28:27;97140.81;;;-5.03;100.00
3796;BME280;1913;50.660;7.834;2023-02-26T05:30:55;97152.19;;;-4.94;100.00
3796;BME280;1913;50.660;7.834;2023-02-26T05:33:20;97150.97;;;-5.01;100.00
3796;BME280;1913;50.660;7.834;2023-02-26T05:35:46;97154.97;;;-5.10;100.00
3796;BME280;1913;50.660;7.834;2023-02-26T05:38:12;97160.22;;;-5.12;100.00
3796;BME280;1913;50.660;7.834;2023-02-26T05:40:37;97155.81;;;-5.22;100.00
3796;BME280;1913;50.660;7.834;2023-02-26T05:43:03;97165.03;;;-5.20;100.00
3796;BME280;1913;50.660;7.834;2023-02-26T05:45:28;97168.63;;;-5.35;100.00
3796;BME280;1913;50.660;7.834;2023-02-26T05:47:54;97176.31;;;-5.35;100.00
3796;BME280;1913;50.660;7.834;2023-02-26T05:50:20;97174.06;;;-5.40;100.00
3796;BME280;1913;50.660;7.834;2023-02-26T05:52:46;97180.84;;;-5.39;100.00
3796;BME280;1913;50.660;7.834;2023-02-26T05:55:12;97188.03;;;-5.44;100.00
3796;BME280;1913;50.660;7.834;2023-02-26T05:57:37;97196.50;;;-5.43;100.00
3796;BME280;1913;50.660;7.834;2023-02-26T06:00:04;97198.47;;;-5.47;100.00
3796;BME280;1913;50.660;7.834;2023-02-26T06:02:30;97206.31;;;-5.37;100.00
3796;BME280;1913;50.660;7.834;2023-02-26T06:04:56;97206.22;;;-5.48;100.00
3796;BME280;1913;50.660;7.834;2023-02-26T06:07:21;97213.41;;;-5.54;100.00
3796;BME280;1913;50.660;7.834;2023-02-26T06:09:46;97220.06;;;-5.51;100.00
3796;BME280;1913;50.660;7.834;2023-02-26T06:12:12;97223.66;;;-5.54;100.00
3796;BME280;1913;50.660;7.834;2023-02-26T06:14:37;97219.38;;;-5.40;100.00
3796;BME280;1913;50.660;7.834;2023-02-26T06:17:03;97232.06;;;-5.39;100.00
3796;BME280;1913;50.660;7.834;2023-02-26T06:19:29;97231.13;;;-5.50;100.00
3796;BME280;1913;50.660;7.834;2023-02-26T06:21:55;97240.25;;;-5.46;100.00
3796;BME280;1913;50.660;7.834;2023-02-26T06:24:20;97237.69;;;-5.34;100.00
3796;BME280;1913;50.660;7.834;2023-02-26T06:26:46;97245.59;;;-5.37;100.00
3796;BME280;1913;50.660;7.834;2023-02-26T06:29:11;97252.34;;;-5.36;100.00
3796;BME280;1913;50.660;7.834;2023-02-26T06:31:37;97255.00;;;-5.37;100.00
3796;BME280;1913;50.660;7.834;2023-02-26T06:34:02;97252.31;;;-5.48;100.00
3796;BME280;1913;50.660;7.834;2023-02-26T06:36:27;97270.97;;;-5.34;100.00
3796;BME280;1913;50.660;7.834;2023-02-26T06:38:53;97271.50;;;-5.41;100.00
3796;BME280;1913;50.660;7.834;2023-02-26T06:41:18;97274.59;;;-5.36;100.00
3796;BME280;1913;50.660;7.834;2023-02-26T06:43:44;97277.03;;;-5.35;100.00
3796;BME280;1913;50.660;7.834;2023-02-26T06:46:10;97284.31;;;-5.28;100.00
3796;BME280;1913;50.660;7.834;2023-02-26T06:48:35;97295.78;;;-5.21;100.00
3796;BME280;1913;50.660;7.834;2023-02-26T06:51:00;97294.16;;;-5.10;100.00
3796;BME280;1913;50.660;7.834;2023-02-26T06:53:26;97299.19;;;-4.83;100.00
3796;BME280;1913;50.660;7.834;2023-02-26T06:55:52;97298.41;;;-4.59;100.00
3796;BME280;1913;50.660;7.834;2023-02-26T06:58:18;97309.53;;;-4.35;100.00
3796;BME280;1913;50.660;7.834;2023-02-26T07:00:44;97313.88;;;-3.98;100.00
3796;BME280;1913;50.660;7.834;2023-02-26T07:03:15;97312.47;;;-3.67;100.00
3796;BME280;1913;50.660;7.834;2023-02-26T07:05:40;97318.44;;;-3.31;100.00
3796;BME280;1913;50.660;7.834;2023-02-26T07:08:06;97324.47;;;-2.86;100.00
3796;BME280;1913;50.660;7.834;2023-02-26T07:10:32;97328.59;;;-2.72;100.00
3796;BME280;1913;50.660;7.834;2023-02-26T07:12:58;97339.09;;;-2.86;100.00
3796;BME280;1913;50.660;7.834;2023-02-26T07:15:24;97336.66;;;-2.77;100.00
3796;BME280;1913;50.660;7.834;2023-02-26T07:17:49;97338.88;;;-2.83;100.00
3796;BME280;1913;50.660;7.834;2023-02-26T07:20:15;97342.81;;;-3.02;100.00
3796;BME280;1913;50.660;7.834;2023-02-26T07:22:42;97346.00;;;-2.87;100.00
3796;BME280;1913;50.660;7.834;2023-02-26T07:25:08;97353.50;;;-2.84;100.00
3796;BME280;1913;50.660;7.834;2023-02-26T07:27:34;97359.91;;;-2.90;100.00
3796;BME280;1913;50.660;7.834;2023-02-26T07:30:00;97350.56;;;-2.68;100.00
3796;BME280;1913;50.660;7.834;2023-02-26T07:32:25;97354.66;;;-2.09;100.00
3796;BME280;1913;50.660;7.834;2023-02-26T07:34:51;97358.94;;;-1.87;100.00
3796;BME280;1913;50.660;7.834;2023-02-26T07:37:16;97357.50;;;-1.37;100.00
3796;BME280;1913;50.660;7.834;2023-02-26T07:39:43;97358.66;;;-1.30;100.00
3796;BME280;1913;50.660;7.834;2023-02-26T07:42:08;97360.19;;;-1.06;100.00
3796;BME280;1913;50.660;7.834;2023-02-26T07:44:34;97365.88;;;-0.61;100.00
3796;BME280;1913;50.660;7.834;2023-02-26T07:47:02;97371.41;;;-0.04;100.00
3796;BME280;1913;50.660;7.834;2023-02-26T07:49:28;97390.44;;;0.45;100.00
3796;BME280;1913;50.660;7.834;2023-02-26T07:51:54;97386.63;;;1.17;100.00
3796;BME280;1913;50.660;7.834;2023-02-26T07:54:19;97385.09;;;1.81;100.00
3796;BME280;1913;50.660;7.834;2023-02-26T07:56:45;97381.63;;;2.63;100.00
3796;BME280;1913;50.660;7.834;2023-02-26T07:59:11;97383.28;;;3.00;100.00
3796;BME280;1913;50.660;7.834;2023-02-26T08:01:37;97386.81;;;2.99;100.00
3796;BME280;1913;50.660;7.834;2023-02-26T08:04:03;97387.66;;;3.43;99.38
3796;BME280;1913;50.660;7.834;2023-02-26T08:06:29;97384.31;;;3.07;92.34
3796;BME280;1913;50.660;7.834;2023-02-26T08:08:54;97395.34;;;3.53;89.53
3796;BME280;1913;50.660;7.834;2023-02-26T08:11:19;97387.97;;;4.00;85.08
3796;BME280;1913;50.660;7.834;2023-02-26T08:13:45;97392.38;;;4.50;82.56
3796;BME280;1913;50.660;7.834;2023-02-26T08:16:11;97387.97;;;4.43;72.92
3796;BME280;1913;50.660;7.834;2023-02-26T08:18:36;97393.16;;;4.00;68.86
3796;BME280;1913;50.660;7.834;2023-02-26T08:21:02;97396.69;;;3.31;69.91
3796;BME280;1913;50.660;7.834;2023-02-26T08:23:28;97401.00;;;2.69;83.17
3796;BME280;1913;50.660;7.834;2023-02-26T08:26:20;97408.56;;;2.34;83.15
3796;BME280;1913;50.660;7.834;2023-02-26T08:28:45;97405.56;;;2.11;89.83
3796;BME280;1913;50.660;7.834;2023-02-26T08:31:12;97409.00;;;2.02;90.73
3796;BME280;1913;50.660;7.834;2023-02-26T08:33:37;97421.69;;;2.60;92.01
3796;BME280;1913;50.660;7.834;2023-02-26T08:36:03;97415.19;;;3.10;84.09
3796;BME280;1913;50.660;7.834;2023-02-26T08:38:29;97416.94;;;3.09;78.31
3796;BME280;1913;50.660;7.834;2023-02-26T08:40:55;97419.97;;;3.05;80.41
3796;BME280;1913;50.660;7.834;2023-02-26T08:43:22;97409.25;;;3.00;77.30
3796;BME280;1913;50.660;7.834;2023-02-26T08:45:47;97416.50;;;3.14;79.03
3796;BME280;1913;50.660;7.834;2023-02-26T08:48:14;97421.31;;;2.91;76.91
3796;BME280;1913;50.660;7.834;2023-02-26T08:50:39;97425.56;;;3.10;75.76
3796;BME280;1913;50.660;7.834;2023-02-26T08:53:05;97416.06;;;3.45;71.96
3796;BME280;1913;50.660;7.834;2023-02-26T08:55:31;97411.63;;;3.37;69.92
3796;BME280;1913;50.660;7.834;2023-02-26T08:57:56;97418.56;;;3.28;68.85
3796;BME280;1913;50.660;7.834;2023-02-26T09:00:22;97423.53;;;3.22;67.05
3796;BME280;1913;50.660;7.834;2023-02-26T09:02:48;97431.41;;;4.08;66.42
3796;BME280;1913;50.660;7.834;2023-02-26T09:05:13;97428.91;;;4.41;63.77
3796;BME280;1913;50.660;7.834;2023-02-26T09:07:40;97422.47;;;4.45;60.29
3796;BME280;1913;50.660;7.834;2023-02-26T09:10:06;97442.03;;;4.23;63.06
3796;BME280;1913;50.660;7.834;2023-02-26T09:12:32;97444.03;;;4.88;58.35
3796;BME280;1913;50.660;7.834;2023-02-26T09:15:02;97453.16;;;5.00;56.03
3796;BME280;1913;50.660;7.834;2023-02-26T09:17:29;97444.19;;;4.94;56.63
3796;BME280;1913;50.660;7.834;2023-02-26T09:19:55;97436.41;;;5.35;55.64
3796;BME280;1913;50.660;7.834;2023-02-26T09:22:20;97466.69;;;5.69;53.69
3796;BME280;1913;50.660;7.834;2023-02-26T09:24:46;97463.09;;;5.62;52.78
3796;BME280;1913;50.660;7.834;2023-02-26T09:27:12;97458.25;;;5.59;54.92
3796;BME280;1913;50.660;7.834;2023-02-26T09:29:37;97463.28;;;5.76;53.38
3796;BME280;1913;50.660;7.834;2023-02-26T09:32:03;97474.06;;;5.49;52.17
3796;BME280;1913;50.660;7.834;2023-02-26T09:34:36;97473.06;;;5.25;51.81
3796;BME280;1913;50.660;7.834;2023-02-26T09:37:07;97475.03;;;5.32;53.30
3796;BME280;1913;50.660;7.834;2023-02-26T09:39:33;97478.34;;;4.83;54.03
3796;BME280;1913;50.660;7.834;2023-02-26T09:44:37;97487.63;;;4.35;54.72
3796;BME280;1913;50.660;7.834;2023-02-26T09:50:02;97498.16;;;5.84;52.34
3796;BME280;1913;50.660;7.834;2023-02-26T09:52:35;97497.50;;;6.62;51.23
3796;BME280;1913;50.660;7.834;2023-02-26T09:57:48;97488.00;;;7.46;49.02
3796;BME280;1913;50.660;7.834;2023-02-26T10:00:23;97498.59;;;6.67;46.79
3796;BME280;1913;50.660;7.834;2023-02-26T10:08:39;97510.66;;;7.54;46.53
3796;BME280;1913;50.660;7.834;2023-02-26T10:11:16;97510.13;;;7.81;43.15
3796;BME280;1913;50.660;7.834;2023-02-26T10:13:49;97512.88;;;7.42;46.21
3796;BME280;1913;50.660;7.834;2023-02-26T10:16:22;97516.13;;;6.59;44.47
3796;BME280;1913;50.660;7.834;2023-02-26T10:18:57;97519.88;;;6.56;45.29
3796;BME280;1913;50.660;7.834;2023-02-26T10:21:45;97515.88;;;6.77;45.52
3796;BME280;1913;50.660;7.834;2023-02-26T10:24:16;97519.94;;;7.10;45.05
3796;BME280;1913;50.660;7.834;2023-02-26T10:26:49;97519.56;;;6.90;44.13
3796;BME280;1913;50.660;7.834;2023-02-26T10:29:27;97532.88;;;6.00;44.99
3796;BME280;1913;50.660;7.834;2023-02-26T10:37:18;97543.38;;;3.45;50.34
3796;BME280;1913;50.660;7.834;2023-02-26T10:50:57;97542.13;;;2.58;59.50
3796;BME280;1913;50.660;7.834;2023-02-26T10:53:25;97543.28;;;2.73;59.24
3796;BME280;1913;50.660;7.834;2023-02-26T10:56:02;97561.19;;;2.39;59.14
3796;BME280;1913;50.660;7.834;2023-02-26T10:58:29;97556.19;;;2.18;60.05
3796;BME280;1913;50.660;7.834;2023-02-26T11:00:55;97556.81;;;2.39;58.30
3796;BME280;1913;50.660;7.834;2023-02-26T11:05:53;97570.06;;;2.36;55.02
3796;BME280;1913;50.660;7.834;2023-02-26T11:08:24;97582.41;;;2.15;54.31
3796;BME280;1913;50.660;7.834;2023-02-26T11:10:53;97579.72;;;2.44;53.62
3796;BME280;1913;50.660;7.834;2023-02-26T11:13:22;97572.03;;;3.17;53.44
3796;BME280;1913;50.660;7.834;2023-02-26T11:15:50;97570.53;;;3.15;51.97
3796;BME280;1913;50.660;7.834;2023-02-26T11:18:20;97576.22;;;3.46;52.36
3796;BME280;1913;50.660;7.834;2023-02-26T11:20:47;97577.31;;;2.98;54.17
3796;BME280;1913;50.660;7.834;2023-02-26T11:23:16;97576.25;;;2.91;56.17
3796;BME280;1913;50.660;7.834;2023-02-26T11:25:44;97580.66;;;2.80;55.28
3796;BME280;1913;50.660;7.834;2023-02-26T11:28:34;97587.13;;;2.39;56.12
3796;BME280;1913;50.660;7.834;2023-02-26T11:31:01;97587.84;;;2.22;57.81
3796;BME280;1913;50.660;7.834;2023-02-26T11:33:43;97588.69;;;2.03;58.05
3796;BME280;1913;50.660;7.834;2023-02-26T11:36:12;97589.25;;;1.97;57.95
3796;BME280;1913;50.660;7.834;2023-02-26T11:38:40;97590.56;;;2.20;59.72
3796;BME280;1913;50.660;7.834;2023-02-26T11:41:05;97589.09;;;2.08;58.33
3796;BME280;1913;50.660;7.834;2023-02-26T11:43:47;97591.69;;;2.64;59.21
3796;BME280;1913;50.660;7.834;2023-02-26T11:46:14;97606.91;;;2.30;59.03
3796;BME280;1913;50.660;7.834;2023-02-26T11:48:45;97594.94;;;2.29;57.16
3796;BME280;1913;50.660;7.834;2023-02-26T11:51:19;97602.28;;;2.34;58.68
3796;BME280;1913;50.660;7.834;2023-02-26T11:53:52;97605.16;;;2.31;56.85
3796;BME280;1913;50.660;7.834;2023-02-26T11:56:40;97595.53;;;2.51;56.15
3796;BME280;1913;50.660;7.834;2023-02-26T11:59:16;97594.72;;;2.87;55.57
3796;BME280;1913;50.660;7.834;2023-02-26T12:01:42;97602.84;;;2.75;53.94
3796;BME280;1913;50.660;7.834;2023-02-26T12:04:10;97591.06;;;2.80;55.69
3796;BME280;1913;50.660;7.834;2023-02-26T12:06:36;97601.13;;;2.56;54.49
3796;BME280;1913;50.660;7.834;2023-02-26T12:09:02;97592.78;;;2.62;54.99
3796;BME280;1913;50.660;7.834;2023-02-26T12:11:40;97594.72;;;2.50;55.20
3796;BME280;1913;50.660;7.834;2023-02-26T12:17:22;97598.69;;;2.45;54.50
3796;BME280;1913;50.660;7.834;2023-02-26T12:20:07;97604.78;;;2.06;53.93
3796;BME280;1913;50.660;7.834;2023-02-26T12:33:28;97603.09;;;2.81;52.79
3796;BME280;1913;50.660;7.834;2023-02-26T12:36:36;97612.16;;;2.95;54.15
3796;BME280;1913;50.660;7.834;2023-02-26T12:39:31;97623.97;;;2.43;52.97
3796;BME280;1913;50.660;7.834;2023-02-26T13:01:53;97617.66;;;2.45;52.47
3796;BME280;1913;50.660;7.834;2023-02-26T13:12:45;97618.97;;;2.22;52.76
3796;BME280;1913;50.660;7.834;2023-02-26T13:21:01;97627.16;;;2.07;54.21
3796;BME280;1913;50.660;7.834;2023-02-26T13:23:34;97622.94;;;1.97;52.82
3796;BME280;1913;50.660;7.834;2023-02-26T13:26:05;97625.09;;;1.53;53.45
3796;BME280;1913;50.660;7.834;2023-02-26T13:31:15;97617.50;;;1.80;53.83
3796;BME280;1913;50.660;7.834;2023-02-26T13:33:43;97625.69;;;1.85;54.06
3796;BME280;1913;50.660;7.834;2023-02-26T13:36:10;97622.00;;;2.07;55.16
3796;BME280;1913;50.660;7.834;2023-02-26T13:44:31;97620.28;;;4.09;50.97
3796;BME280;1913;50.660;7.834;2023-02-26T13:47:26;97618.97;;;3.69;49.35
3796;BME280;1913;50.660;7.834;2023-02-26T13:52:30;97619.28;;;4.54;49.59
3796;BME280;1913;50.660;7.834;2023-02-26T13:54:56;97617.16;;;5.18;47.29
3796;BME280;1913;50.660;7.834;2023-02-26T13:57:41;97627.13;;;6.06;45.58
3796;BME280;1913;50.660;7.834;2023-02-26T14:00:30;97626.69;;;6.90;44.18
3796;BME280;1913;50.660;7.834;2023-02-26T14:03:31;97620.34;;;6.77;43.28
3796;BME280;1913;50.660;7.834;2023-02-26T14:06:08;97626.13;;;6.39;43.19
3796;BME280;1913;50.660;7.834;2023-02-26T14:11:25;97632.00;;;6.00;44.41
3796;BME280;1913;50.660;7.834;2023-02-26T14:16:42;97629.09;;;4.34;46.19
3796;BME280;1913;50.660;7.834;2023-02-26T14:26:43;97633.38;;;2.91;50.49
3796;BME280;1913;50.660;7.834;2023-02-26T14:29:28;97645.91;;;3.23;51.25
3796;BME280;1913;50.660;7.834;2023-02-26T14:34:55;97637.00;;;5.19;48.58
3796;BME280;1913;50.660;7.834;2023-02-26T14:37:25;97643.78;;;5.46;47.93
3796;BME280;1913;50.660;7.834;2023-02-26T14:45:40;97643.47;;;3.49;49.42
3796;BME280;1913;50.660;7.834;2023-02-26T14:48:14;97640.16;;;3.01;51.33
3796;BME280;1913;50.660;7.834;2023-02-26T14:56:07;97633.63;;;3.88;51.46
3796;BME280;1913;50.660;7.834;2023-02-26T14:58:55;97639.97;;;3.76;50.79
3796;BME280;1913;50.660;7.834;2023-02-26T15:01:48;97643.47;;;3.49;51.28
3796;BME280;1913;50.660;7.834;2023-02-26T15:04:36;97638.06;;;2.77;52.41
3796;BME280;1913;50.660;7.834;2023-02-26T15:23:46;97638.09;;;2.68;52.22
3796;BME280;1913;50.660;7.834;2023-02-26T15:26:23;97642.56;;;2.28;52.10
3796;BME280;1913;50.660;7.834;2023-02-26T15:29:06;97647.63;;;2.10;52.65
3796;BME280;1913;50.660;7.834;2023-02-26T15:31:42;97643.41;;;1.90;54.29
3796;BME280;1913;50.660;7.834;2023-02-26T15:34:12;97647.22;;;1.76;55.52
3796;BME280;1913;50.660;7.834;2023-02-26T15:36:42;97652.09;;;1.60;56.01
3796;BME280;1913;50.660;7.834;2023-02-26T15:39:09;97664.63;;;1.45;56.27
3796;BME280;1913;50.660;7.834;2023-02-26T15:41:37;97656.22;;;1.62;55.41
3796;BME280;1913;50.660;7.834;2023-02-26T15:44:25;97652.66;;;1.54;53.57
3796;BME280;1913;50.660;7.834;2023-02-26T15:46:56;97662.44;;;1.40;53.27
3796;BME280;1913;50.660;7.834;2023-02-26T15:49:39;97655.94;;;1.46;52.87
3796;BME280;1913;50.660;7.834;2023-02-26T15:52:22;97664.81;;;1.92;52.40
3796;BME280;1913;50.660;7.834;2023-02-26T15:55:02;97664.69;;;2.23;51.45
3796;BME280;1913;50.660;7.834;2023-02-26T15:57:33;97659.63;;;2.21;50.85
3796;BME280;1913;50.660;7.834;2023-02-26T16:00:09;97663.84;;;2.32;50.85
3796;BME280;1913;50.660;7.834;2023-02-26T16:02:35;97665.09;;;2.18;50.65
3796;BME280;1913;50.660;7.834;2023-02-26T16:05:02;97654.41;;;2.40;51.08
3796;BME280;1913;50.660;7.834;2023-02-26T16:07:28;97667.19;;;2.71;51.36
3796;BME280;1913;50.660;7.834;2023-02-26T16:10:06;97660.66;;;2.57;50.63
3796;BME280;1913;50.660;7.834;2023-02-26T16:12:50;97661.66;;;2.27;49.95
3796;BME280;1913;50.660;7.834;2023-02-26T16:15:43;97668.66;;;1.78;50.72
3796;BME280;1913;50.660;7.834;2023-02-26T16:18:22;97675.97;;;1.54;50.49
3796;BME280;1913;50.660;7.834;2023-02-26T16:20:56;97669.88;;;1.24;51.16
3796;BME280;1913;50.660;7.834;2023-02-26T16:23:38;97668.28;;;0.92;52.34
3796;BME280;1913;50.660;7.834;2023-02-26T16:26:15;97678.97;;;0.78;53.41
3796;BME280;1913;50.660;7.834;2023-02-26T16:28:47;97680.19;;;0.74;54.13
3796;BME280;1913;50.660;7.834;2023-02-26T16:31:23;97685.75;;;0.69;55.25
3796;BME280;1913;50.660;7.834;2023-02-26T16:34:02;97685.91;;;0.47;56.65
3796;BME280;1913;50.660;7.834;2023-02-26T16:36:31;97694.28;;;0.39;57.13
3796;BME280;1913;50.660;7.834;2023-02-26T16:41:33;97702.13;;;0.17;57.55
3796;BME280;1913;50.660;7.834;2023-02-26T16:44:03;97704.41;;;0.10;58.64
3796;BME280;1913;50.660;7.834;2023-02-26T16:46:50;97706.69;;;0.04;59.96
3796;BME280;1913;50.660;7.834;2023-02-26T16:49:24;97713.16;;;-0.02;60.54
3796;BME280;1913;50.660;7.834;2023-02-26T16:51:55;97712.81;;;-0.09;60.96
3796;BME280;1913;50.660;7.834;2023-02-26T16:54:31;97718.69;;;-0.18;62.22